sensor_id;sensor_type;location;lat;lon;timestamp;P1;durP1;ratioP1;P2;durP2;ratioP2
11443;SDS011;5778;47.856;12.154;2022-08-04T00:01:17;1.80;;;1.70;;
11443;SDS011;5778;47.856;12.154;2022-08-04T00:03:50;1.70;;;1.60;;
11443;SDS011;5778;47.856;12.154;2022-08-04T00:06:27;3.93;;;2.40;;
11443;SDS011;5778;47.856;12.154;2022-08-04T00:09:07;2.13;;;1.80;;
11443;SDS011;5778;47.856;12.154;2022-08-04T00:11:39;1.87;;;1.70;;
11443;SDS011;5778;47.856;12.154;2022-08-04T00:14:12;2.00;;;1.80;;
11443;SDS011;5778;47.856;12.154;2022-08-04T00:16:41;2.50;;;1.90;;
11443;SDS011;5778;47.856;12.154;2022-08-04T00:19:15;2.13;;;1.87;;
11443;SDS011;5778;47.856;12.154;2022-08-04T00:21:47;1.80;;;1.60;;
11443;SDS011;5778;47.856;12.154;2022-08-04T00:24:19;2.20;;;1.73;;
11443;SDS011;5778;47.856;12.154;2022-08-04T00:26:47;2.10;;;1.87;;
11443;SDS011;5778;47.856;12.154;2022-08-04T00:29:17;2.10;;;1.83;;
11443;SDS011;5778;47.856;12.154;2022-08-04T00:31:44;1.50;;;1.50;;
11443;SDS011;5778;47.856;12.154;2022-08-04T00:34:12;2.40;;;1.80;;
11443;SDS011;5778;47.856;12.154;2022-08-04T00:36:40;2.27;;;1.73;;
11443;SDS011;5778;47.856;12.154;2022-08-04T00:39:12;1.67;;;1.57;;
11443;SDS011;5778;47.856;12.154;2022-08-04T00:41:46;4.93;;;1.90;;
11443;SDS011;5778;47.856;12.154;2022-08-04T00:44:21;1.70;;;1.60;;
11443;SDS011;5778;47.856;12.154;2022-08-04T00:47:00;1.90;;;1.80;;
11443;SDS011;5778;47.856;12.154;2022-08-04T00:52:32;2.50;;;1.70;;
11443;SDS011;5778;47.856;12.154;2022-08-04T00:58:05;1.90;;;1.80;;
11443;SDS011;5778;47.856;12.154;2022-08-04T01:00:53;1.70;;;1.60;;
11443;SDS011;5778;47.856;12.154;2022-08-04T01:03:32;1.97;;;1.80;;
11443;SDS011;5778;47.856;12.154;2022-08-04T01:06:23;3.20;;;1.90;;
11443;SDS011;5778;47.856;12.154;2022-08-04T01:09:02;1.83;;;1.73;;
11443;SDS011;5778;47.856;12.154;2022-08-04T01:11:45;2.87;;;1.90;;
11443;SDS011;5778;47.856;12.154;2022-08-04T01:14:23;1.90;;;1.80;;
11443;SDS011;5778;47.856;12.154;2022-08-04T01:17:13;1.83;;;1.73;;
11443;SDS011;5778;47.856;12.154;2022-08-04T01:19:53;1.83;;;1.70;;
11443;SDS011;5778;47.856;12.154;2022-08-04T01:29:06;4.23;;;1.90;;
11443;SDS011;5778;47.856;12.154;2022-08-04T01:31:41;1.90;;;1.80;;
11443;SDS011;5778;47.856;12.154;2022-08-04T01:34:23;2.03;;;1.93;;
11443;SDS011;5778;47.856;12.154;2022-08-04T01:36:57;2.03;;;1.80;;
11443;SDS011;5778;47.856;12.154;2022-08-04T01:39:35;2.20;;;1.70;;
11443;SDS011;5778;47.856;12.154;2022-08-04T01:42:10;2.50;;;1.70;;
11443;SDS011;5778;47.856;12.154;2022-08-04T01:44:40;3.30;;;1.60;;
11443;SDS011;5778;47.856;12.154;2022-08-04T01:47:08;2.33;;;2.13;;
11443;SDS011;5778;47.856;12.154;2022-08-04T01:49:36;1.80;;;1.70;;
11443;SDS011;5778;47.856;12.154;2022-08-04T01:52:07;2.63;;;1.80;;
11443;SDS011;5778;47.856;12.154;2022-08-04T01:54:36;1.83;;;1.70;;
11443;SDS011;5778;47.856;12.154;2022-08-04T01:57:06;1.87;;;1.77;;
11443;SDS011;5778;47.856;12.154;2022-08-04T01:59:35;2.10;;;2.00;;
11443;SDS011;5778;47.856;12.154;2022-08-04T02:02:05;2.10;;;2.00;;
11443;SDS011;5778;47.856;12.154;2022-08-04T02:04:34;3.03;;;2.00;;
11443;SDS011;5778;47.856;12.154;2022-08-04T02:07:05;2.70;;;1.83;;
11443;SDS011;5778;47.856;12.154;2022-08-04T02:09:45;1.97;;;1.77;;
11443;SDS011;5778;47.856;12.154;2022-08-04T02:12:19;2.00;;;1.90;;
11443;SDS011;5778;47.856;12.154;2022-08-04T02:14:55;3.90;;;1.93;;
11443;SDS011;5778;47.856;12.154;2022-08-04T02:17:30;2.13;;;1.97;;
11443;SDS011;5778;47.856;12.154;2022-08-04T02:20:03;1.90;;;1.80;;
11443;SDS011;5778;47.856;12.154;2022-08-04T02:22:34;2.03;;;1.93;;
11443;SDS011;5778;47.856;12.154;2022-08-04T02:25:08;2.23;;;1.77;;
11443;SDS011;5778;47.856;12.154;2022-08-04T02:30:39;3.57;;;2.00;;
11443;SDS011;5778;47.856;12.154;2022-08-04T02:33:11;2.77;;;1.77;;
11443;SDS011;5778;47.856;12.154;2022-08-04T02:35:42;3.50;;;2.00;;
11443;SDS011;5778;47.856;12.154;2022-08-04T02:38:15;2.00;;;1.90;;
11443;SDS011;5778;47.856;12.154;2022-08-04T02:40:47;2.20;;;2.10;;
11443;SDS011;5778;47.856;12.154;2022-08-04T02:43:15;2.20;;;2.10;;
11443;SDS011;5778;47.856;12.154;2022-08-04T02:45:45;2.20;;;2.00;;
11443;SDS011;5778;47.856;12.154;2022-08-04T02:48:16;2.17;;;1.97;;
11443;SDS011;5778;47.856;12.154;2022-08-04T02:50:47;3.23;;;1.70;;
11443;SDS011;5778;47.856;12.154;2022-08-04T02:53:15;2.10;;;2.00;;
11443;SDS011;5778;47.856;12.154;2022-08-04T02:55:47;2.00;;;1.80;;
11443;SDS011;5778;47.856;12.154;2022-08-04T02:58:15;3.23;;;2.03;;
11443;SDS011;5778;47.856;12.154;2022-08-04T03:00:45;1.87;;;1.70;;
11443;SDS011;5778;47.856;12.154;2022-08-04T03:03:22;2.60;;;2.07;;
11443;SDS011;5778;47.856;12.154;2022-08-04T03:06:09;2.07;;;1.90;;
11443;SDS011;5778;47.856;12.154;2022-08-04T03:24:49;3.43;;;1.83;;
11443;SDS011;5778;47.856;12.154;2022-08-04T03:30:54;2.93;;;1.80;;
11443;SDS011;5778;47.856;12.154;2022-08-04T03:33:38;2.17;;;1.97;;
11443;SDS011;5778;47.856;12.154;2022-08-04T03:36:23;2.00;;;1.90;;
11443;SDS011;5778;47.856;12.154;2022-08-04T03:39:13;2.30;;;2.10;;
11443;SDS011;5778;47.856;12.154;2022-08-04T03:45:30;2.40;;;2.20;;
11443;SDS011;5778;47.856;12.154;2022-08-04T03:48:39;2.03;;;1.83;;
11443;SDS011;5778;47.856;12.154;2022-08-04T03:51:26;1.90;;;1.77;;
11443;SDS011;5778;47.856;12.154;2022-08-04T03:57:43;3.23;;;2.00;;
11443;SDS011;5778;47.856;12.154;2022-08-04T04:00:19;3.57;;;1.90;;
11443;SDS011;5778;47.856;12.154;2022-08-04T04:05:58;4.13;;;2.53;;
11443;SDS011;5778;47.856;12.154;2022-08-04T04:12:13;3.00;;;2.10;;
11443;SDS011;5778;47.856;12.154;2022-08-04T04:15:02;3.10;;;1.97;;
11443;SDS011;5778;47.856;12.154;2022-08-04T04:17:59;2.27;;;2.10;;
11443;SDS011;5778;47.856;12.154;2022-08-04T04:21:01;3.73;;;2.60;;
11443;SDS011;5778;47.856;12.154;2022-08-04T04:23:49;2.77;;;2.20;;
11443;SDS011;5778;47.856;12.154;2022-08-04T04:26:43;2.20;;;2.00;;
11443;SDS011;5778;47.856;12.154;2022-08-04T04:29:27;2.40;;;2.20;;
11443;SDS011;5778;47.856;12.154;2022-08-04T04:32:09;2.67;;;2.23;;
11443;SDS011;5778;47.856;12.154;2022-08-04T04:34:58;2.70;;;2.50;;
11443;SDS011;5778;47.856;12.154;2022-08-04T04:38:04;3.37;;;2.50;;
11443;SDS011;5778;47.856;12.154;2022-08-04T04:40:46;3.03;;;2.07;;
11443;SDS011;5778;47.856;12.154;2022-08-04T04:43:42;2.63;;;2.30;;
11443;SDS011;5778;47.856;12.154;2022-08-04T04:46:29;2.80;;;2.30;;
11443;SDS011;5778;47.856;12.154;2022-08-04T04:49:04;3.53;;;2.70;;
11443;SDS011;5778;47.856;12.154;2022-08-04T04:51:41;3.40;;;2.67;;
11443;SDS011;5778;47.856;12.154;2022-08-04T04:54:31;3.30;;;2.67;;
11443;SDS011;5778;47.856;12.154;2022-08-04T04:57:10;2.80;;;2.50;;
11443;SDS011;5778;47.856;12.154;2022-08-04T04:59:43;2.83;;;2.50;;
11443;SDS011;5778;47.856;12.154;2022-08-04T05:02:36;2.47;;;2.27;;
11443;SDS011;5778;47.856;12.154;2022-08-04T05:05:26;2.83;;;2.60;;
11443;SDS011;5778;47.856;12.154;2022-08-04T05:08:19;3.13;;;2.83;;
11443;SDS011;5778;47.856;12.154;2022-08-04T05:11:06;2.53;;;2.33;;
11443;SDS011;5778;47.856;12.154;2022-08-04T05:13:46;3.00;;;2.50;;
11443;SDS011;5778;47.856;12.154;2022-08-04T05:16:18;2.90;;;2.50;;
11443;SDS011;5778;47.856;12.154;2022-08-04T05:18:53;3.20;;;3.00;;
11443;SDS011;5778;47.856;12.154;2022-08-04T05:21:39;2.93;;;2.73;;
11443;SDS011;5778;47.856;12.154;2022-08-04T05:24:20;3.13;;;2.77;;
11443;SDS011;5778;47.856;12.154;2022-08-04T05:26:55;2.50;;;2.30;;
11443;SDS011;5778;47.856;12.154;2022-08-04T05:29:29;5.27;;;2.90;;
11443;SDS011;5778;47.856;12.154;2022-08-04T05:32:00;4.20;;;2.60;;
11443;SDS011;5778;47.856;12.154;2022-08-04T05:37:31;5.03;;;2.83;;
11443;SDS011;5778;47.856;12.154;2022-08-04T05:40:02;3.97;;;2.83;;
11443;SDS011;5778;47.856;12.154;2022-08-04T05:42:34;2.80;;;2.60;;
11443;SDS011;5778;47.856;12.154;2022-08-04T05:45:08;2.97;;;2.60;;
11443;SDS011;5778;47.856;12.154;2022-08-04T05:47:35;2.83;;;2.40;;
11443;SDS011;5778;47.856;12.154;2022-08-04T05:50:04;2.93;;;2.60;;
11443;SDS011;5778;47.856;12.154;2022-08-04T05:52:33;5.43;;;2.57;;
11443;SDS011;5778;47.856;12.154;2022-08-04T05:55:10;3.80;;;2.67;;
11443;SDS011;5778;47.856;12.154;2022-08-04T05:57:45;3.13;;;2.73;;
11443;SDS011;5778;47.856;12.154;2022-08-04T06:00:14;3.23;;;2.70;;
11443;SDS011;5778;47.856;12.154;2022-08-04T06:02:43;2.70;;;2.50;;
11443;SDS011;5778;47.856;12.154;2022-08-04T06:05:13;5.07;;;2.70;;
11443;SDS011;5778;47.856;12.154;2022-08-04T06:07:42;4.13;;;2.43;;
11443;SDS011;5778;47.856;12.154;2022-08-04T06:10:09;3.37;;;2.80;;
11443;SDS011;5778;47.856;12.154;2022-08-04T06:12:37;2.93;;;2.63;;
11443;SDS011;5778;47.856;12.154;2022-08-04T06:15:13;3.00;;;2.37;;
11443;SDS011;5778;47.856;12.154;2022-08-04T06:17:45;2.83;;;2.30;;
11443;SDS011;5778;47.856;12.154;2022-08-04T06:20:16;2.43;;;2.23;;
11443;SDS011;5778;47.856;12.154;2022-08-04T06:22:46;4.00;;;2.67;;
11443;SDS011;5778;47.856;12.154;2022-08-04T06:25:18;2.57;;;2.37;;
11443;SDS011;5778;47.856;12.154;2022-08-04T06:27:55;4.33;;;2.70;;
11443;SDS011;5778;47.856;12.154;2022-08-04T06:30:26;2.70;;;2.50;;
11443;SDS011;5778;47.856;12.154;2022-08-04T06:32:58;3.27;;;2.77;;
11443;SDS011;5778;47.856;12.154;2022-08-04T06:35:27;3.73;;;2.70;;
11443;SDS011;5778;47.856;12.154;2022-08-04T06:37:56;4.20;;;2.60;;
11443;SDS011;5778;47.856;12.154;2022-08-04T06:40:26;3.17;;;2.63;;
11443;SDS011;5778;47.856;12.154;2022-08-04T06:42:55;4.10;;;2.70;;
11443;SDS011;5778;47.856;12.154;2022-08-04T06:45:23;3.80;;;2.60;;
11443;SDS011;5778;47.856;12.154;2022-08-04T06:47:52;2.60;;;2.40;;
11443;SDS011;5778;47.856;12.154;2022-08-04T06:50:21;4.20;;;2.50;;
11443;SDS011;5778;47.856;12.154;2022-08-04T06:52:52;4.57;;;3.70;;
11443;SDS011;5778;47.856;12.154;2022-08-04T06:55:19;7.70;;;2.93;;
11443;SDS011;5778;47.856;12.154;2022-08-04T06:57:53;4.67;;;2.60;;
11443;SDS011;5778;47.856;12.154;2022-08-04T07:00:22;4.57;;;3.00;;
11443;SDS011;5778;47.856;12.154;2022-08-04T07:03:03;6.67;;;2.77;;
11443;SDS011;5778;47.856;12.154;2022-08-04T07:05:31;3.03;;;2.73;;
11443;SDS011;5778;47.856;12.154;2022-08-04T07:08:00;2.90;;;2.67;;
11443;SDS011;5778;47.856;12.154;2022-08-04T07:10:28;3.10;;;2.33;;
11443;SDS011;5778;47.856;12.154;2022-08-04T07:13:13;8.63;;;3.20;;
11443;SDS011;5778;47.856;12.154;2022-08-04T07:15:42;5.00;;;2.47;;
11443;SDS011;5778;47.856;12.154;2022-08-04T07:18:13;3.70;;;2.23;;
11443;SDS011;5778;47.856;12.154;2022-08-04T07:20:41;3.17;;;2.33;;
11443;SDS011;5778;47.856;12.154;2022-08-04T07:23:09;6.90;;;2.73;;
11443;SDS011;5778;47.856;12.154;2022-08-04T07:25:41;7.37;;;2.80;;
11443;SDS011;5778;47.856;12.154;2022-08-04T07:31:32;4.80;;;2.70;;
11443;SDS011;5778;47.856;12.154;2022-08-04T07:34:01;3.10;;;2.43;;
11443;SDS011;5778;47.856;12.154;2022-08-04T07:36:29;2.83;;;2.50;;
11443;SDS011;5778;47.856;12.154;2022-08-04T07:38:56;2.53;;;2.33;;
11443;SDS011;5778;47.856;12.154;2022-08-04T07:41:23;2.73;;;2.50;;
11443;SDS011;5778;47.856;12.154;2022-08-04T07:43:51;3.70;;;2.30;;
11443;SDS011;5778;47.856;12.154;2022-08-04T07:46:19;5.57;;;2.50;;
11443;SDS011;5778;47.856;12.154;2022-08-04T07:48:46;2.87;;;2.10;;
11443;SDS011;5778;47.856;12.154;2022-08-04T07:51:16;3.13;;;2.40;;
11443;SDS011;5778;47.856;12.154;2022-08-04T07:53:43;2.40;;;2.20;;
11443;SDS011;5778;47.856;12.154;2022-08-04T07:56:12;3.00;;;2.60;;
11443;SDS011;5778;47.856;12.154;2022-08-04T07:58:41;2.40;;;2.20;;
11443;SDS011;5778;47.856;12.154;2022-08-04T08:01:08;2.50;;;2.30;;
11443;SDS011;5778;47.856;12.154;2022-08-04T08:03:36;3.70;;;2.30;;
11443;SDS011;5778;47.856;12.154;2022-08-04T08:06:04;2.40;;;2.20;;
11443;SDS011;5778;47.856;12.154;2022-08-04T08:08:33;2.53;;;2.33;;
11443;SDS011;5778;47.856;12.154;2022-08-04T08:11:03;3.07;;;2.60;;
11443;SDS011;5778;47.856;12.154;2022-08-04T08:13:31;2.30;;;2.10;;
11443;SDS011;5778;47.856;12.154;2022-08-04T08:15:59;2.40;;;2.20;;
11443;SDS011;5778;47.856;12.154;2022-08-04T08:18:27;2.50;;;2.30;;
11443;SDS011;5778;47.856;12.154;2022-08-04T08:20:54;3.43;;;2.50;;
11443;SDS011;5778;47.856;12.154;2022-08-04T08:23:22;2.50;;;2.30;;
11443;SDS011;5778;47.856;12.154;2022-08-04T08:25:52;2.40;;;2.20;;
11443;SDS011;5778;47.856;12.154;2022-08-04T08:28:19;3.33;;;2.27;;
11443;SDS011;5778;47.856;12.154;2022-08-04T08:30:47;2.10;;;2.00;;
11443;SDS011;5778;47.856;12.154;2022-08-04T08:33:14;3.60;;;2.20;;
11443;SDS011;5778;47.856;12.154;2022-08-04T08:35:45;2.20;;;2.10;;
11443;SDS011;5778;47.856;12.154;2022-08-04T08:38:17;3.20;;;2.20;;
11443;SDS011;5778;47.856;12.154;2022-08-04T08:40:54;2.50;;;2.30;;
11443;SDS011;5778;47.856;12.154;2022-08-04T08:43:35;3.33;;;2.30;;
11443;SDS011;5778;47.856;12.154;2022-08-04T08:46:19;3.70;;;2.30;;
11443;SDS011;5778;47.856;12.154;2022-08-04T08:49:01;3.40;;;2.20;;
11443;SDS011;5778;47.856;12.154;2022-08-04T08:54:44;5.10;;;2.37;;
11443;SDS011;5778;47.856;12.154;2022-08-04T09:00:22;2.80;;;2.27;;
11443;SDS011;5778;47.856;12.154;2022-08-04T09:03:07;4.63;;;2.10;;
11443;SDS011;5778;47.856;12.154;2022-08-04T09:06:03;2.72;;;2.10;;
11443;SDS011;5778;47.856;12.154;2022-08-04T09:08:54;6.95;;;2.20;;
11443;SDS011;5778;47.856;12.154;2022-08-04T09:11:36;3.37;;;2.00;;
11443;SDS011;5778;47.856;12.154;2022-08-04T09:14:09;2.80;;;2.20;;
11443;SDS011;5778;47.856;12.154;2022-08-04T09:16:48;5.45;;;2.25;;
11443;SDS011;5778;47.856;12.154;2022-08-04T09:19:20;3.13;;;2.38;;
11443;SDS011;5778;47.856;12.154;2022-08-04T09:21:56;3.28;;;2.00;;
11443;SDS011;5778;47.856;12.154;2022-08-04T09:24:28;2.28;;;2.13;;
11443;SDS011;5778;47.856;12.154;2022-08-04T09:27:04;2.67;;;2.00;;
11443;SDS011;5778;47.856;12.154;2022-08-04T09:29:42;3.33;;;2.17;;
11443;SDS011;5778;47.856;12.154;2022-08-04T09:32:20;2.75;;;2.20;;
11443;SDS011;5778;47.856;12.154;2022-08-04T09:34:55;5.47;;;2.20;;
11443;SDS011;5778;47.856;12.154;2022-08-04T09:37:41;3.50;;;2.08;;
11443;SDS011;5778;47.856;12.154;2022-08-04T09:40:16;2.75;;;2.30;;
11443;SDS011;5778;47.856;12.154;2022-08-04T09:42:51;3.00;;;2.13;;
11443;SDS011;5778;47.856;12.154;2022-08-04T09:45:31;2.75;;;1.92;;
11443;SDS011;5778;47.856;12.154;2022-08-04T09:48:04;2.30;;;2.10;;
11443;SDS011;5778;47.856;12.154;2022-08-04T09:50:36;2.33;;;2.13;;
11443;SDS011;5778;47.856;12.154;2022-08-04T09:53:07;4.45;;;2.10;;
11443;SDS011;5778;47.856;12.154;2022-08-04T09:55:47;3.00;;;2.47;;
11443;SDS011;5778;47.856;12.154;2022-08-04T09:58:27;3.78;;;2.13;;
11443;SDS011;5778;47.856;12.154;2022-08-04T10:01:07;2.38;;;2.10;;
11443;SDS011;5778;47.856;12.154;2022-08-04T10:03:38;3.42;;;2.05;;
11443;SDS011;5778;47.856;12.154;2022-08-04T10:06:18;2.20;;;2.00;;
11443;SDS011;5778;47.856;12.154;2022-08-04T10:09:20;2.10;;;2.00;;
11443;SDS011;5778;47.856;12.154;2022-08-04T10:12:02;2.17;;;1.98;;
11443;SDS011;5778;47.856;12.154;2022-08-04T10:14:52;2.03;;;1.80;;
11443;SDS011;5778;47.856;12.154;2022-08-04T10:17:58;4.32;;;1.80;;
11443;SDS011;5778;47.856;12.154;2022-08-04T10:23:32;2.60;;;1.92;;
11443;SDS011;5778;47.856;12.154;2022-08-04T10:26:11;3.85;;;2.00;;
11443;SDS011;5778;47.856;12.154;2022-08-04T10:28:49;3.05;;;2.10;;
11443;SDS011;5778;47.856;12.154;2022-08-04T10:31:29;2.35;;;2.10;;
11443;SDS011;5778;47.856;12.154;2022-08-04T10:34:04;3.03;;;2.10;;
11443;SDS011;5778;47.856;12.154;2022-08-04T10:36:39;2.08;;;1.75;;
11443;SDS011;5778;47.856;12.154;2022-08-04T10:39:13;2.10;;;1.90;;
11443;SDS011;5778;47.856;12.154;2022-08-04T10:41:46;1.90;;;1.80;;
11443;SDS011;5778;47.856;12.154;2022-08-04T10:44:21;4.60;;;2.00;;
11443;SDS011;5778;47.856;12.154;2022-08-04T10:46:59;1.92;;;1.83;;
11443;SDS011;5778;47.856;12.154;2022-08-04T10:49:32;2.60;;;2.40;;
11443;SDS011;5778;47.856;12.154;2022-08-04T10:52:05;2.40;;;2.13;;
11443;SDS011;5778;47.856;12.154;2022-08-04T10:54:37;2.30;;;2.00;;
11443;SDS011;5778;47.856;12.154;2022-08-04T10:57:15;2.83;;;2.38;;
11443;SDS011;5778;47.856;12.154;2022-08-04T10:59:52;3.80;;;2.28;;
11443;SDS011;5778;47.856;12.154;2022-08-04T11:02:29;2.17;;;1.98;;
11443;SDS011;5778;47.856;12.154;2022-08-04T11:05:09;2.10;;;1.88;;
11443;SDS011;5778;47.856;12.154;2022-08-04T11:07:40;2.20;;;2.00;;
11443;SDS011;5778;47.856;12.154;2022-08-04T11:10:09;4.25;;;2.20;;
11443;SDS011;5778;47.856;12.154;2022-08-04T11:12:39;2.10;;;1.90;;
11443;SDS011;5778;47.856;12.154;2022-08-04T11:15:10;2.83;;;1.90;;
11443;SDS011;5778;47.856;12.154;2022-08-04T11:17:44;2.25;;;2.00;;
11443;SDS011;5778;47.856;12.154;2022-08-04T11:20:23;2.78;;;2.00;;
11443;SDS011;5778;47.856;12.154;2022-08-04T11:22:57;2.08;;;1.98;;
11443;SDS011;5778;47.856;12.154;2022-08-04T11:25:32;2.15;;;2.00;;
11443;SDS011;5778;47.856;12.154;2022-08-04T11:28:08;2.38;;;1.60;;
11443;SDS011;5778;47.856;12.154;2022-08-04T11:30:41;4.57;;;2.00;;
11443;SDS011;5778;47.856;12.154;2022-08-04T11:33:20;2.17;;;1.70;;
11443;SDS011;5778;47.856;12.154;2022-08-04T11:35:56;1.83;;;1.73;;
11443;SDS011;5778;47.856;12.154;2022-08-04T11:38:36;1.70;;;1.60;;
11443;SDS011;5778;47.856;12.154;2022-08-04T11:41:10;2.35;;;1.80;;
11443;SDS011;5778;47.856;12.154;2022-08-04T11:43:43;2.38;;;1.80;;
11443;SDS011;5778;47.856;12.154;2022-08-04T11:46:17;3.75;;;1.85;;
11443;SDS011;5778;47.856;12.154;2022-08-04T11:48:51;2.75;;;1.75;;
11443;SDS011;5778;47.856;12.154;2022-08-04T11:51:26;1.90;;;1.80;;
11443;SDS011;5778;47.856;12.154;2022-08-04T11:53:54;3.28;;;2.20;;
11443;SDS011;5778;47.856;12.154;2022-08-04T11:56:23;1.70;;;1.60;;
11443;SDS011;5778;47.856;12.154;2022-08-04T11:58:50;1.90;;;1.80;;
11443;SDS011;5778;47.856;12.154;2022-08-04T12:01:20;1.75;;;1.65;;
11443;SDS011;5778;47.856;12.154;2022-08-04T12:03:59;1.70;;;1.63;;
11443;SDS011;5778;47.856;12.154;2022-08-04T12:06:35;1.90;;;1.80;;
11443;SDS011;5778;47.856;12.154;2022-08-04T12:09:10;2.00;;;1.90;;
11443;SDS011;5778;47.856;12.154;2022-08-04T12:11:49;3.08;;;1.80;;
11443;SDS011;5778;47.856;12.154;2022-08-04T12:14:25;1.98;;;1.80;;
11443;SDS011;5778;47.856;12.154;2022-08-04T12:16:59;4.55;;;1.88;;
11443;SDS011;5778;47.856;12.154;2022-08-04T12:19:29;1.90;;;1.80;;
11443;SDS011;5778;47.856;12.154;2022-08-04T12:22:02;1.95;;;1.85;;
11443;SDS011;5778;47.856;12.154;2022-08-04T12:24:33;1.52;;;1.42;;
11443;SDS011;5778;47.856;12.154;2022-08-04T12:27:09;2.30;;;1.50;;
11443;SDS011;5778;47.856;12.154;2022-08-04T12:29:39;1.60;;;1.60;;
11443;SDS011;5778;47.856;12.154;2022-08-04T12:32:15;1.80;;;1.70;;
11443;SDS011;5778;47.856;12.154;2022-08-04T12:34:47;3.78;;;1.90;;
11443;SDS011;5778;47.856;12.154;2022-08-04T12:37:26;2.22;;;1.60;;
11443;SDS011;5778;47.856;12.154;2022-08-04T12:40:00;1.90;;;1.80;;
11443;SDS011;5778;47.856;12.154;2022-08-04T12:42:33;2.00;;;1.75;;
11443;SDS011;5778;47.856;12.154;2022-08-04T12:45:08;1.98;;;1.85;;
11443;SDS011;5778;47.856;12.154;2022-08-04T12:47:36;1.92;;;1.83;;
11443;SDS011;5778;47.856;12.154;2022-08-04T12:50:06;1.83;;;1.73;;
11443;SDS011;5778;47.856;12.154;2022-08-04T12:52:45;2.42;;;2.00;;
11443;SDS011;5778;47.856;12.154;2022-08-04T12:55:15;1.90;;;1.80;;
11443;SDS011;5778;47.856;12.154;2022-08-04T12:57:43;3.08;;;1.60;;
11443;SDS011;5778;47.856;12.154;2022-08-04T13:00:13;1.73;;;1.60;;
11443;SDS011;5778;47.856;12.154;2022-08-04T13:02:50;2.00;;;1.90;;
11443;SDS011;5778;47.856;12.154;2022-08-04T13:05:20;3.83;;;1.85;;
11443;SDS011;5778;47.856;12.154;2022-08-04T13:07:50;2.05;;;1.70;;
11443;SDS011;5778;47.856;12.154;2022-08-04T13:10:20;1.80;;;1.70;;
11443;SDS011;5778;47.856;12.154;2022-08-04T13:12:54;1.65;;;1.55;;
11443;SDS011;5778;47.856;12.154;2022-08-04T13:15:24;1.80;;;1.70;;
11443;SDS011;5778;47.856;12.154;2022-08-04T13:17:54;2.70;;;1.77;;
11443;SDS011;5778;47.856;12.154;2022-08-04T13:20:24;1.52;;;1.42;;
11443;SDS011;5778;47.856;12.154;2022-08-04T13:23:05;1.85;;;1.52;;
11443;SDS011;5778;47.856;12.154;2022-08-04T13:25:34;4.72;;;1.80;;
11443;SDS011;5778;47.856;12.154;2022-08-04T13:28:05;2.28;;;1.73;;
11443;SDS011;5778;47.856;12.154;2022-08-04T13:30:38;1.77;;;1.65;;
11443;SDS011;5778;47.856;12.154;2022-08-04T13:33:06;3.53;;;1.70;;
11443;SDS011;5778;47.856;12.154;2022-08-04T13:35:33;1.77;;;1.60;;
11443;SDS011;5778;47.856;12.154;2022-08-04T13:38:02;1.70;;;1.60;;
11443;SDS011;5778;47.856;12.154;2022-08-04T13:40:37;1.95;;;1.85;;
11443;SDS011;5778;47.856;12.154;2022-08-04T13:43:07;1.80;;;1.70;;
11443;SDS011;5778;47.856;12.154;2022-08-04T13:45:35;1.85;;;1.75;;
11443;SDS011;5778;47.856;12.154;2022-08-04T13:48:06;2.80;;;1.70;;
11443;SDS011;5778;47.856;12.154;2022-08-04T13:50:35;4.40;;;1.50;;
11443;SDS011;5778;47.856;12.154;2022-08-04T13:53:03;2.25;;;1.70;;
11443;SDS011;5778;47.856;12.154;2022-08-04T13:55:33;1.90;;;1.80;;
11443;SDS011;5778;47.856;12.154;2022-08-04T13:58:03;1.60;;;1.50;;
11443;SDS011;5778;47.856;12.154;2022-08-04T14:00:38;2.65;;;1.70;;
11443;SDS011;5778;47.856;12.154;2022-08-04T14:03:12;1.67;;;1.55;;
11443;SDS011;5778;47.856;12.154;2022-08-04T14:05:47;2.08;;;1.50;;
11443;SDS011;5778;47.856;12.154;2022-08-04T14:08:32;1.92;;;1.50;;
11443;SDS011;5778;47.856;12.154;2022-08-04T14:11:10;1.50;;;1.40;;
11443;SDS011;5778;47.856;12.154;2022-08-04T14:13:37;1.95;;;1.58;;
11443;SDS011;5778;47.856;12.154;2022-08-04T14:16:12;1.73;;;1.40;;
11443;SDS011;5778;47.856;12.154;2022-08-04T14:18:39;2.00;;;1.50;;
11443;SDS011;5778;47.856;12.154;2022-08-04T14:21:07;1.60;;;1.48;;
11443;SDS011;5778;47.856;12.154;2022-08-04T14:23:40;1.90;;;1.80;;
11443;SDS011;5778;47.856;12.154;2022-08-04T14:26:14;1.98;;;1.70;;
11443;SDS011;5778;47.856;12.154;2022-08-04T14:28:43;1.83;;;1.67;;
11443;SDS011;5778;47.856;12.154;2022-08-04T14:31:11;1.63;;;1.52;;
11443;SDS011;5778;47.856;12.154;2022-08-04T14:33:40;1.80;;;1.70;;
11443;SDS011;5778;47.856;12.154;2022-08-04T14:36:09;2.40;;;1.70;;
11443;SDS011;5778;47.856;12.154;2022-08-04T14:38:41;1.80;;;1.70;;
11443;SDS011;5778;47.856;12.154;2022-08-04T14:41:10;1.58;;;1.50;;
11443;SDS011;5778;47.856;12.154;2022-08-04T14:43:44;1.60;;;1.50;;
11443;SDS011;5778;47.856;12.154;2022-08-04T14:46:13;2.45;;;1.30;;
11443;SDS011;5778;47.856;12.154;2022-08-04T14:51:27;1.67;;;1.55;;
11443;SDS011;5778;47.856;12.154;2022-08-04T14:54:03;1.73;;;1.50;;
11443;SDS011;5778;47.856;12.154;2022-08-04T14:56:32;1.40;;;1.40;;
11443;SDS011;5778;47.856;12.154;2022-08-04T14:59:03;3.35;;;1.70;;
11443;SDS011;5778;47.856;12.154;2022-08-04T15:01:32;2.00;;;1.45;;
11443;SDS011;5778;47.856;12.154;2022-08-04T15:04:01;2.08;;;1.58;;
11443;SDS011;5778;47.856;12.154;2022-08-04T15:06:30;1.60;;;1.50;;
11443;SDS011;5778;47.856;12.154;2022-08-04T15:09:00;2.85;;;1.50;;
11443;SDS011;5778;47.856;12.154;2022-08-04T15:11:31;1.48;;;1.30;;
11443;SDS011;5778;47.856;12.154;2022-08-04T15:14:06;1.48;;;1.30;;
11443;SDS011;5778;47.856;12.154;2022-08-04T15:16:33;2.45;;;1.40;;
11443;SDS011;5778;47.856;12.154;2022-08-04T15:19:00;1.63;;;1.40;;
11443;SDS011;5778;47.856;12.154;2022-08-04T15:21:28;2.97;;;1.60;;
11443;SDS011;5778;47.856;12.154;2022-08-04T15:23:55;2.70;;;1.30;;
11443;SDS011;5778;47.856;12.154;2022-08-04T15:26:30;1.48;;;1.38;;
11443;SDS011;5778;47.856;12.154;2022-08-04T15:29:04;1.40;;;1.30;;
11443;SDS011;5778;47.856;12.154;2022-08-04T15:31:37;1.50;;;1.40;;
11443;SDS011;5778;47.856;12.154;2022-08-04T15:34:24;2.50;;;1.33;;
11443;SDS011;5778;47.856;12.154;2022-08-04T15:36:51;1.40;;;1.27;;
11443;SDS011;5778;47.856;12.154;2022-08-04T15:39:25;1.40;;;1.30;;
11443;SDS011;5778;47.856;12.154;2022-08-04T15:42:05;2.25;;;1.40;;
11443;SDS011;5778;47.856;12.154;2022-08-04T15:50:59;1.70;;;1.60;;
11443;SDS011;5778;47.856;12.154;2022-08-04T15:53:30;1.83;;;1.45;;
11443;SDS011;5778;47.856;12.154;2022-08-04T15:55:58;1.95;;;1.40;;
11443;SDS011;5778;47.856;12.154;2022-08-04T15:58:27;1.40;;;1.30;;
11443;SDS011;5778;47.856;12.154;2022-08-04T16:01:14;1.33;;;1.33;;
11443;SDS011;5778;47.856;12.154;2022-08-04T16:06:51;2.15;;;1.48;;
11443;SDS011;5778;47.856;12.154;2022-08-04T16:09:30;1.52;;;1.42;;
11443;SDS011;5778;47.856;12.154;2022-08-04T16:11:58;2.20;;;1.48;;
11443;SDS011;5778;47.856;12.154;2022-08-04T16:14:35;1.75;;;1.60;;
11443;SDS011;5778;47.856;12.154;2022-08-04T16:19:47;2.28;;;1.67;;
11443;SDS011;5778;47.856;12.154;2022-08-04T16:22:39;2.22;;;1.50;;
11443;SDS011;5778;47.856;12.154;2022-08-04T16:25:14;2.45;;;1.52;;
11443;SDS011;5778;47.856;12.154;2022-08-04T16:27:48;4.72;;;1.60;;
11443;SDS011;5778;47.856;12.154;2022-08-04T16:30:15;3.72;;;1.45;;
11443;SDS011;5778;47.856;12.154;2022-08-04T16:32:43;1.40;;;1.30;;
11443;SDS011;5778;47.856;12.154;2022-08-04T16:35:20;1.27;;;1.20;;
11443;SDS011;5778;47.856;12.154;2022-08-04T16:37:53;1.42;;;1.33;;
11443;SDS011;5778;47.856;12.154;2022-08-04T16:40:37;1.40;;;1.33;;
11443;SDS011;5778;47.856;12.154;2022-08-04T16:46:38;2.10;;;2.00;;
11443;SDS011;5778;47.856;12.154;2022-08-04T16:49:06;1.48;;;1.38;;
11443;SDS011;5778;47.856;12.154;2022-08-04T16:51:33;1.30;;;1.20;;
11443;SDS011;5778;47.856;12.154;2022-08-04T16:54:10;2.78;;;1.60;;